Time;durP1;ratioP1;P1;durP2;ratioP2;P2;SDS_P1;SDS_P2;PMS_P1;PMS_P2;Temp;Humidity;BMP_temperature;BMP_pressure;BME280_temperature;BME280_humidity;BME280_pressure;Samples;Min_cycle;Max_cycle;Signal;HPM_P1;HPM_P2
2022/09/30 09:58:15;;;;;;;14.68;7.25;;;;;;;17.47;100.00;101123.37;1767185;79;21166;-87
2022/09/30 10:03:27;;;;;;;14.15;7.28;;;;;;;17.35;100.00;101103.88;1768321;80;20946;-94
2022/09/30 10:06:09;;;;;;;17.98;7.22;;;;;;;17.37;100.00;101119.39;1761132;79;20988;-93
2022/09/30 10:08:42;;;;;;;15.25;7.62;;;;;;;17.37;100.00;101122.13;1757920;79;22187;-96
2022/09/30 10:11:24;;;;;;;21.80;8.75;;;;;;;17.38;100.00;101121.04;1756395;80;21112;-95
2022/09/30 10:13:59;;;;;;;21.60;9.08;;;;;;;17.40;100.00;101118.00;1756248;79;21324;-93
2022/09/30 10:16:34;;;;;;;17.02;9.28;;;;;;;17.40;100.00;101116.64;1750487;80;21021;-92
2022/09/30 10:19:03;;;;;;;30.40;9.75;;;;;;;17.43;100.00;101116.06;1644665;85;21105;-91
2022/09/30 10:21:30;;;;;;;27.50;11.65;;;;;;;17.35;100.00;101105.80;1610927;87;21693;-92
2022/09/30 10:23:58;;;;;;;27.00;11.00;;;;;;;17.24;100.00;101103.78;1641727;86;21262;-92
2022/09/30 10:26:27;;;;;;;32.08;12.70;;;;;;;17.25;100.00;101111.65;1635120;84;21170;-95
2022/09/30 10:28:59;;;;;;;27.73;10.60;;;;;;;17.27;100.00;101110.00;1625224;86;21050;-94
2022/09/30 10:31:31;;;;;;;32.83;13.03;;;;;;;17.32;100.00;101101.75;1650145;84;21621;-92
2022/09/30 10:34:10;;;;;;;23.47;11.83;;;;;;;17.25;100.00;101098.02;1648069;85;21232;-93
2022/09/30 10:36:42;;;;;;;23.38;11.68;;;;;;;17.22;100.00;101093.16;1641265;85;21170;-94
2022/09/30 10:39:26;;;;;;;28.07;11.63;;;;;;;17.23;100.00;101089.88;1623997;86;21499;-92
2022/09/30 10:42:06;;;;;;;24.00;10.78;;;;;;;17.22;100.00;101080.91;1625288;86;21086;-95
2022/09/30 10:44:37;;;;;;;28.30;11.08;;;;;;;17.24;100.00;101082.80;1570768;89;21139;-96
2022/09/30 10:47:05;;;;;;;27.52;10.15;;;;;;;17.28;100.00;101078.13;1577225;89;21149;-96
2022/09/30 10:49:45;;;;;;;25.35;9.65;;;;;;;17.32;100.00;101075.06;1591181;89;21181;-96
2022/09/30 10:52:22;;;;;;;22.35;9.93;;;;;;;17.36;100.00;101071.47;1492287;94;21077;-96
2022/09/30 10:55:00;;;;;;;22.52;9.28;;;;;;;17.47;100.00;101076.20;1421924;99;21099;-93
2022/09/30 10:57:39;;;;;;;20.20;9.45;;;;;;;17.57;100.00;101065.17;1470841;96;21077;-95
2022/09/30 11:00:13;;;;;;;23.80;8.93;;;;;;;17.67;100.00;101061.47;1398727;100;21136;-96
2022/09/30 11:03:08;;;;;;;18.62;8.90;;;;;;;17.75;100.00;101065.46;1394093;100;21659;-95
2022/09/30 11:05:42;;;;;;;27.37;9.55;;;;;;;17.92;100.00;101071.22;1409612;101;21244;-96
2022/09/30 11:08:34;;;;;;;21.05;9.73;;;;;;;18.08;100.00;101084.04;1406132;100;21127;-95
2022/09/30 11:11:14;;;;;;;21.23;9.98;;;;;;;18.18;100.00;101078.96;1398289;100;21199;-93
2022/09/30 11:13:53;;;;;;;20.82;10.18;;;;;;;18.35;100.00;101083.30;1404950;101;21183;-95
2022/09/30 11:16:47;;;;;;;24.45;9.98;;;;;;;18.48;100.00;101082.53;1394065;100;22885;-94
2022/09/30 11:19:31;;;;;;;19.35;9.30;;;;;;;18.61;100.00;101081.72;1367522;104;21224;-94
2022/09/30 11:22:14;;;;;;;24.18;11.70;;;;;;;18.86;100.00;101085.13;1327443;107;21255;-93
2022/09/30 11:24:45;;;;;;;;;;;;;;;19.08;100.00;101087.69;1340589;106;21221;-94
2022/09/30 11:27:37;;;;;;;20.30;10.85;;;;;;;19.42;100.00;101084.51;1342019;106;20225;-93
2022/09/30 11:30:20;;;;;;;27.27;11.30;;;;;;;19.68;100.00;101093.78;1331196;105;21160;-95
2022/09/30 11:33:12;;;;;;;23.20;12.53;;;;;;;19.90;100.00;101088.07;1341331;105;21457;-95
2022/09/30 11:36:23;;;;;;;21.87;11.60;;;;;;;20.02;100.00;101091.05;1346473;104;21263;-94
2022/09/30 11:38:54;;;;;;;21.70;10.75;;;;;;;20.35;100.00;101096.25;1344985;105;21340;-94
2022/09/30 11:41:40;;;;;;;21.75;10.43;;;;;;;20.72;100.00;101099.13;1380061;99;21257;-91
2022/09/30 11:44:34;;;;;;;18.62;10.38;;;;;;;20.97;100.00;101096.25;1387893;101;21167;-95
2022/09/30 11:47:32;;;;;;;23.22;10.82;;;;;;;21.05;100.00;101085.05;1446372;98;21262;-93
2022/09/30 11:50:40;;;;;;;13.90;9.03;;;;;;;21.13;100.00;101072.51;1417726;100;21212;-93
2022/09/30 11:53:43;;;;;;;17.20;10.18;;;;;;;20.87;100.00;101067.76;1459127;97;21184;-92
2022/09/30 11:56:24;;;;;;;15.63;9.05;;;;;;;20.87;100.00;101074.04;1504537;90;21130;-89
2022/09/30 11:58:53;;;;;;;12.55;8.30;;;;;;;21.04;100.00;101069.75;1587651;86;21086;-89
2022/09/30 12:01:31;;;;;;;16.17;8.80;;;;;;;21.17;100.00;101074.27;1633000;86;21981;-91
2022/09/30 12:04:05;;;;;;;15.15;8.43;;;;;;;21.28;100.00;101072.05;1647694;86;21586;-93
2022/09/30 12:06:55;;;;;;;25.97;12.25;;;;;;;21.49;100.00;101069.52;1563799;91;21174;-96
2022/09/30 12:09:26;;;;;;;19.55;10.08;;;;;;;21.49;100.00;101060.72;1559848;90;21043;-96
2022/09/30 12:12:06;;;;;;;19.25;9.45;;;;;;;21.37;100.00;101043.30;1551641;91;21563;-96
2022/09/30 12:14:41;;;;;;;17.92;9.40;;;;;;;21.36;100.00;101041.13;1548712;90;21342;-92
2022/09/30 12:17:21;;;;;;;14.35;8.93;;;;;;;21.38;100.00;101040.80;1551010;90;21127;-94
2022/09/30 12:19:50;;;;;;;19.57;8.78;;;;;;;21.35;100.00;101044.15;1546724;90;21070;-92
2022/09/30 12:22:39;;;;;;;20.05;9.00;;;;;;;21.35;100.00;101043.58;1553927;90;21519;-91
2022/09/30 12:25:13;;;;;;;15.72;8.98;;;;;;;21.35;100.00;101046.89;1574153;85;21129;-92
2022/09/30 12:27:46;;;;;;;16.55;9.80;;;;;;;21.39;100.00;101046.54;1591726;88;21774;-92
2022/09/30 12:30:19;;;;;;;15.23;8.93;;;;;;;21.51;100.00;101050.24;1488563;95;21035;-96
2022/09/30 12:33:19;;;;;;;17.10;9.50;;;;;;;21.57;100.00;101052.27;1476276;95;21691;-90
2022/09/30 12:36:15;;;;;;;19.87;10.58;;;;;;;21.58;100.00;101058.55;1455252;97;21634;-94
2022/09/30 12:38:53;;;;;;;18.98;11.48;;;;;;;21.65;100.00;101062.44;1455429;98;21115;-94
2022/09/30 12:41:43;;;;;;;25.37;11.85;;;;;;;21.68;100.00;101068.64;1453924;97;21285;-94
2022/09/30 12:44:51;;;;;;;21.75;11.57;;;;;;;21.77;100.00;101074.93;1444113;97;21233;-93
2022/09/30 12:47:37;;;;;;;21.87;10.68;;;;;;;21.93;100.00;101074.42;1442378;97;21611;-92
2022/09/30 12:50:07;;;;;;;19.77;10.53;;;;;;;21.91;100.00;101073.94;1462108;96;21105;-92
2022/09/30 12:52:35;;;;;;;20.75;11.15;;;;;;;21.85;100.00;101074.66;1477132;96;21243;-88
2022/09/30 12:55:27;;;;;;;18.27;10.90;;;;;;;21.92;100.00;101064.59;1470070;96;21154;-93
2022/09/30 12:57:56;;;;;;;22.45;11.78;;;;;;;21.94;100.00;101063.68;1434206;99;21067;-89
2022/09/30 13:00:28;;;;;;;22.50;11.48;;;;;;;21.92;100.00;101057.73;1436087;99;21084;-90
2022/09/30 13:02:59;;;;;;;20.47;11.63;;;;;;;21.98;100.00;101067.41;1441555;97;21172;-89
2022/09/30 13:05:31;;;;;;;23.05;12.03;;;;;;;22.09;100.00;101071.43;1462311;94;21110;-89
